createdAt,value
2017-06-21T00:01:31.376Z,8.40
2017-06-21T00:03:59.608Z,8.93
2017-06-21T00:06:27.036Z,8.10
2017-06-21T00:08:54.463Z,8.50
2017-06-21T00:11:22.676Z,8.60
2017-06-21T00:13:50.120Z,8.80
2017-06-21T00:16:17.612Z,8.97
2017-06-21T00:18:45.020Z,9.33
2017-06-21T00:21:13.230Z,8.70
2017-06-21T00:23:40.656Z,8.40
2017-06-21T00:26:08.087Z,8.43
2017-06-21T00:28:35.516Z,7.80
2017-06-21T00:31:02.980Z,8.70
2017-06-21T00:33:30.413Z,8.13
2017-06-21T00:35:57.840Z,9.40
2017-06-21T00:38:25.280Z,8.30
2017-06-21T00:40:53.472Z,7.90
2017-06-21T00:43:20.904Z,8.77
2017-06-21T00:45:48.333Z,9.17
2017-06-21T00:48:15.770Z,8.07
2017-06-21T00:50:43.200Z,8.53
2017-06-21T00:53:10.636Z,7.83
2017-06-21T00:55:38.827Z,7.50
2017-06-21T00:58:06.260Z,8.57
2017-06-21T01:00:33.688Z,8.40
2017-06-21T01:03:01.132Z,7.97
2017-06-21T01:05:28.565Z,8.10
2017-06-21T01:07:55.991Z,8.03
2017-06-21T01:10:24.196Z,8.20
2017-06-21T01:12:51.620Z,7.27
2017-06-21T01:15:19.829Z,8.70
2017-06-21T01:17:47.256Z,7.77
2017-06-21T01:20:15.452Z,7.80
2017-06-21T01:22:42.875Z,8.23
2017-06-21T01:25:10.325Z,7.97
2017-06-21T01:27:37.758Z,7.47
2017-06-21T01:30:05.197Z,8.80
2017-06-21T01:32:32.624Z,8.23
2017-06-21T01:35:00.060Z,7.60
2017-06-21T01:37:27.484Z,8.37
2017-06-21T01:39:54.926Z,8.30
2017-06-21T01:42:22.375Z,8.73
2017-06-21T01:44:49.800Z,8.37
2017-06-21T01:47:17.229Z,7.80
2017-06-21T01:49:44.659Z,8.40
2017-06-21T01:52:12.100Z,8.13
2017-06-21T01:54:39.524Z,7.80
2017-06-21T01:57:07.720Z,7.77
2017-06-21T01:59:35.153Z,8.23
2017-06-21T02:02:02.602Z,8.40
2017-06-21T02:04:30.028Z,8.53
2017-06-21T02:06:57.529Z,8.70
2017-06-21T02:09:25.728Z,7.93
2017-06-21T02:11:53.165Z,7.60
2017-06-21T02:14:20.603Z,8.10
2017-06-21T02:16:48.046Z,7.40
2017-06-21T02:19:15.496Z,7.60
2017-06-21T02:21:42.933Z,8.73
2017-06-21T02:24:10.372Z,7.93
2017-06-21T02:26:37.804Z,7.70
2017-06-21T02:29:06.009Z,7.40
2017-06-21T02:31:33.441Z,7.13
2017-06-21T02:34:00.872Z,7.67
2017-06-21T02:36:28.309Z,7.37
2017-06-21T02:38:55.801Z,8.67
2017-06-21T02:41:24.032Z,6.33
2017-06-21T02:43:53.480Z,8.23
2017-06-21T02:46:21.681Z,8.03
2017-06-21T02:48:49.117Z,7.70
2017-06-21T02:51:16.557Z,7.70
2017-06-21T02:53:43.990Z,7.40
2017-06-21T02:56:11.428Z,6.87
2017-06-21T02:58:38.863Z,7.73
2017-06-21T03:01:06.297Z,7.20
2017-06-21T03:03:34.503Z,8.90
2017-06-21T03:06:01.936Z,7.60
2017-06-21T03:08:29.370Z,7.23
2017-06-21T03:10:56.813Z,8.30
2017-06-21T03:13:24.252Z,7.43
2017-06-21T03:15:51.693Z,7.40
2017-06-21T03:18:21.152Z,8.00
2017-06-21T03:20:49.353Z,6.37
2017-06-21T03:23:16.789Z,7.70
2017-06-21T03:25:44.229Z,6.47
2017-06-21T03:28:11.651Z,7.40
2017-06-21T03:30:39.090Z,7.70
2017-06-21T03:33:06.529Z,7.70
2017-06-21T03:35:33.957Z,6.93
2017-06-21T03:38:01.392Z,6.90
2017-06-21T03:40:30.825Z,6.40
2017-06-21T03:42:59.024Z,6.50
2017-06-21T03:45:26.453Z,7.47
2017-06-21T03:47:54.656Z,7.37
2017-06-21T03:50:22.085Z,7.07
2017-06-21T03:52:52.332Z,6.20
2017-06-21T03:55:19.761Z,6.30
2017-06-21T03:57:47.953Z,6.27
2017-06-21T04:00:15.389Z,6.50
2017-06-21T04:02:42.824Z,6.10
2017-06-21T04:05:10.262Z,6.57
2017-06-21T04:07:37.680Z,6.97
2017-06-21T04:10:05.116Z,6.47
2017-06-21T04:12:33.308Z,7.07
2017-06-21T04:15:00.749Z,6.80
2017-06-21T04:17:28.944Z,6.40
2017-06-21T04:19:56.380Z,6.60
2017-06-21T04:22:24.590Z,6.63
2017-06-21T04:24:52.012Z,7.03
2017-06-21T04:27:20.216Z,6.20
2017-06-21T04:29:47.648Z,6.80
2017-06-21T04:32:15.172Z,6.30
2017-06-21T04:34:42.608Z,6.10
2017-06-21T04:37:10.079Z,6.20
2017-06-21T04:39:37.538Z,5.93
2017-06-21T04:42:04.980Z,6.27
2017-06-21T04:44:32.436Z,6.27
2017-06-21T04:46:59.878Z,6.13
2017-06-21T04:49:27.305Z,6.07
2017-06-21T04:51:55.504Z,6.07
2017-06-21T04:54:22.936Z,6.17
2017-06-21T04:56:51.141Z,6.03
2017-06-21T04:59:18.569Z,6.27
2017-06-21T05:01:46.768Z,6.80
2017-06-21T05:04:14.199Z,6.17
2017-06-21T05:06:42.396Z,6.17
2017-06-21T05:09:09.833Z,5.80
2017-06-21T05:11:38.029Z,5.87
2017-06-21T05:14:05.465Z,5.40
2017-06-21T05:16:33.657Z,5.57
2017-06-21T05:19:01.104Z,6.63
2017-06-21T05:21:28.534Z,5.90
2017-06-21T05:23:55.968Z,5.27
2017-06-21T05:26:23.401Z,6.17
2017-06-21T05:28:50.836Z,5.87
2017-06-21T05:31:18.265Z,5.53
2017-06-21T05:33:46.488Z,6.70
2017-06-21T05:36:13.922Z,5.87
2017-06-21T05:38:41.347Z,6.07
2017-06-21T05:41:08.784Z,5.60
2017-06-21T05:43:36.247Z,6.07
2017-06-21T05:46:03.683Z,5.43
2017-06-21T05:48:31.112Z,6.10
2017-06-21T05:50:58.545Z,6.27
2017-06-21T05:53:26.745Z,6.30
2017-06-21T05:55:54.181Z,6.30
2017-06-21T05:58:21.611Z,6.83
2017-06-21T06:00:49.044Z,6.53
2017-06-21T06:03:16.485Z,6.07
2017-06-21T06:05:43.913Z,6.00
2017-06-21T06:08:11.348Z,6.37
2017-06-21T06:10:39.552Z,5.50
2017-06-21T06:13:06.981Z,5.77
2017-06-21T06:15:35.180Z,6.33
2017-06-21T06:18:02.620Z,5.57
2017-06-21T06:20:30.047Z,6.17
2017-06-21T06:22:57.483Z,7.03
2017-06-21T06:25:24.912Z,6.50
2017-06-21T06:27:52.345Z,6.40
2017-06-21T06:30:19.776Z,6.00
2017-06-21T06:32:47.213Z,5.97
2017-06-21T06:35:14.644Z,5.90
2017-06-21T06:37:42.069Z,6.07
2017-06-21T06:40:10.266Z,5.73
2017-06-21T06:42:37.705Z,5.73
2017-06-21T06:45:05.133Z,6.13
2017-06-21T06:47:32.573Z,6.47
2017-06-21T06:49:59.996Z,5.27
2017-06-21T06:52:27.472Z,5.80
2017-06-21T06:54:54.885Z,5.50
2017-06-21T06:57:22.313Z,6.00
2017-06-21T06:59:49.751Z,5.70
2017-06-21T07:02:17.183Z,6.00
2017-06-21T07:04:44.612Z,5.93
2017-06-21T07:07:12.037Z,6.20
2017-06-21T07:09:39.473Z,5.63
2017-06-21T07:12:06.900Z,6.17
2017-06-21T07:14:34.340Z,5.77
2017-06-21T07:17:01.765Z,6.33
2017-06-21T07:19:29.196Z,6.17
2017-06-21T07:21:56.624Z,5.00
2017-06-21T07:24:24.067Z,6.47
2017-06-21T07:26:52.265Z,6.60
2017-06-21T07:29:19.698Z,6.90
2017-06-21T07:31:47.133Z,6.53
2017-06-21T07:34:14.562Z,6.60
2017-06-21T07:36:42.003Z,5.47
2017-06-21T07:39:09.425Z,6.40
2017-06-21T07:41:36.864Z,5.97
2017-06-21T07:44:04.284Z,6.13
2017-06-21T07:46:31.725Z,6.17
2017-06-21T07:48:59.153Z,5.40
2017-06-21T07:51:26.589Z,5.93
2017-06-21T07:53:54.013Z,5.40
2017-06-21T07:56:21.455Z,6.50
2017-06-21T07:58:48.884Z,6.70
2017-06-21T08:01:16.341Z,5.93
2017-06-21T08:03:43.768Z,6.53
2017-06-21T08:06:11.196Z,5.43
2017-06-21T08:08:38.644Z,5.93
2017-06-21T08:11:06.077Z,6.43
2017-06-21T08:13:33.513Z,6.83
2017-06-21T08:16:00.945Z,6.13
2017-06-21T08:18:28.381Z,6.30
2017-06-21T08:20:55.808Z,7.10
2017-06-21T08:23:23.241Z,5.53
2017-06-21T08:25:51.433Z,6.17
2017-06-21T08:28:18.892Z,6.47
2017-06-21T08:30:46.322Z,6.17
2017-06-21T08:33:14.521Z,5.30
2017-06-21T08:35:41.953Z,6.13
2017-06-21T08:38:09.381Z,6.07
2017-06-21T08:40:36.812Z,5.63
2017-06-21T08:43:04.244Z,5.67
2017-06-21T08:45:31.681Z,6.47
2017-06-21T08:47:59.873Z,6.13
2017-06-21T08:50:27.317Z,5.97
2017-06-21T08:52:55.509Z,6.47
2017-06-21T08:55:23.973Z,6.43
2017-06-21T08:57:51.452Z,7.00
2017-06-21T09:00:18.884Z,6.43
2017-06-21T09:02:47.076Z,6.47
2017-06-21T09:05:14.522Z,6.83
2017-06-21T09:07:42.708Z,5.87
2017-06-21T09:10:10.137Z,6.67
2017-06-21T09:12:38.341Z,6.00
2017-06-21T09:15:05.769Z,5.97
2017-06-21T09:17:33.972Z,5.83
2017-06-21T09:20:01.397Z,5.67
2017-06-21T09:22:29.601Z,6.53
2017-06-21T09:24:57.032Z,6.97
2017-06-21T09:27:25.234Z,6.97
2017-06-21T09:29:52.660Z,6.80
2017-06-21T09:32:20.860Z,6.67
2017-06-21T09:34:48.286Z,6.60
2017-06-21T09:37:15.724Z,6.43
2017-06-21T09:39:43.156Z,6.17
2017-06-21T09:42:10.607Z,7.20
2017-06-21T09:44:38.037Z,7.87
2017-06-21T09:47:05.477Z,6.57
2017-06-21T09:49:33.668Z,6.77
2017-06-21T09:52:01.101Z,7.40
2017-06-21T09:54:29.305Z,6.43
2017-06-21T09:56:56.733Z,7.33
2017-06-21T09:59:24.944Z,7.37
2017-06-21T10:01:52.369Z,5.73
2017-06-21T10:04:20.569Z,7.77
2017-06-21T10:06:48.001Z,7.80
2017-06-21T10:09:16.202Z,7.03
2017-06-21T10:11:43.629Z,7.23
2017-06-21T10:14:11.833Z,6.67
2017-06-21T10:16:39.261Z,6.70
2017-06-21T10:19:07.464Z,7.37
2017-06-21T10:21:34.912Z,7.40
2017-06-21T10:24:03.093Z,5.90
2017-06-21T10:26:30.521Z,7.60
2017-06-21T10:28:58.718Z,7.20
2017-06-21T10:31:26.154Z,6.60
2017-06-21T10:33:54.349Z,7.50
2017-06-21T10:36:21.784Z,7.17
2017-06-21T10:38:49.990Z,6.87
2017-06-21T10:41:17.462Z,5.80
2017-06-21T10:43:44.888Z,7.13
2017-06-21T10:46:12.320Z,7.60
2017-06-21T10:48:39.745Z,7.50
2017-06-21T10:51:07.186Z,6.33
2017-06-21T10:53:34.623Z,6.70
2017-06-21T10:56:02.052Z,7.00
2017-06-21T10:58:30.244Z,6.77
2017-06-21T11:00:57.685Z,7.60
2017-06-21T11:03:25.889Z,7.40
2017-06-21T11:05:53.308Z,6.57
2017-06-21T11:08:21.511Z,6.83
2017-06-21T11:10:48.938Z,6.63
2017-06-21T11:13:16.374Z,6.00
2017-06-21T11:15:43.822Z,6.33
2017-06-21T11:18:11.264Z,6.93
2017-06-21T11:20:38.695Z,6.60
2017-06-21T11:23:06.134Z,6.53
2017-06-21T11:25:34.329Z,6.23
2017-06-21T11:28:01.772Z,7.93
2017-06-21T11:30:29.214Z,6.93
2017-06-21T11:32:56.670Z,7.43
2017-06-21T11:35:24.874Z,7.80
2017-06-21T11:37:52.304Z,7.37
2017-06-21T11:40:20.497Z,6.43
2017-06-21T11:42:47.924Z,6.83
2017-06-21T11:45:15.370Z,6.83
2017-06-21T11:47:42.806Z,7.23
2017-06-21T11:50:10.240Z,5.90
2017-06-21T11:52:37.670Z,5.70
2017-06-21T11:55:05.877Z,6.20
2017-06-21T11:57:33.308Z,6.23
2017-06-21T12:00:00.749Z,6.57
2017-06-21T12:02:28.946Z,6.67
2017-06-21T12:04:56.377Z,6.53
2017-06-21T12:07:24.573Z,7.90
2017-06-21T12:09:52.024Z,6.27
2017-06-21T12:12:20.200Z,6.43
2017-06-21T12:14:47.642Z,6.53
2017-06-21T12:17:15.833Z,7.30
2017-06-21T12:19:43.259Z,7.23
2017-06-21T12:22:10.695Z,7.30
2017-06-21T12:24:38.130Z,7.00
2017-06-21T12:27:05.561Z,7.33
2017-06-21T12:29:32.989Z,6.70
2017-06-21T12:32:00.417Z,6.70
2017-06-21T12:34:27.843Z,7.50
2017-06-21T12:36:55.281Z,7.77
2017-06-21T12:39:22.717Z,7.60
2017-06-21T12:41:50.152Z,6.47
2017-06-21T12:44:17.582Z,7.30
2017-06-21T12:46:45.017Z,7.67
2017-06-21T12:49:12.443Z,7.67
2017-06-21T12:51:40.657Z,6.97
2017-06-21T12:54:08.088Z,6.77
2017-06-21T12:56:36.412Z,7.37
2017-06-21T12:59:03.828Z,7.00
2017-06-21T13:01:31.266Z,7.27
2017-06-21T13:03:59.468Z,8.03
2017-06-21T13:06:26.897Z,7.50
2017-06-21T13:08:55.102Z,7.47
2017-06-21T13:11:22.524Z,7.30
2017-06-21T13:13:49.960Z,7.33
2017-06-21T13:16:17.391Z,7.20
2017-06-21T13:18:44.824Z,7.03
2017-06-21T13:21:12.251Z,6.43
2017-06-21T13:23:40.476Z,7.13
2017-06-21T13:26:07.989Z,7.40
2017-06-21T13:28:36.181Z,6.97
2017-06-21T13:31:03.611Z,6.10
2017-06-21T13:33:31.813Z,6.30
2017-06-21T13:35:59.249Z,8.00
2017-06-21T13:38:26.676Z,6.23
2017-06-21T13:40:54.116Z,6.20
2017-06-21T13:43:21.549Z,7.00
2017-06-21T13:45:48.980Z,6.77
2017-06-21T13:48:17.180Z,6.57
2017-06-21T13:50:44.608Z,6.60
2017-06-21T13:53:12.801Z,6.93
2017-06-21T13:55:40.341Z,6.90
2017-06-21T13:58:08.541Z,6.17
2017-06-21T14:00:35.981Z,6.67
2017-06-21T14:03:04.172Z,6.40
2017-06-21T14:05:31.601Z,6.90
2017-06-21T14:07:59.805Z,6.87
2017-06-21T14:10:27.233Z,5.93
2017-06-21T14:12:55.440Z,7.67
2017-06-21T14:15:22.865Z,7.30
2017-06-21T14:17:51.085Z,6.70
2017-06-21T14:20:18.497Z,5.87
2017-06-21T14:22:46.700Z,7.43
2017-06-21T14:25:14.301Z,6.17
2017-06-21T14:27:41.740Z,6.70
2017-06-21T14:30:09.248Z,6.57
2017-06-21T14:32:37.469Z,6.33
2017-06-21T14:35:04.900Z,6.60
2017-06-21T14:37:32.345Z,6.73
2017-06-21T14:39:59.769Z,7.07
2017-06-21T14:42:27.196Z,6.70
2017-06-21T14:44:54.629Z,6.13
2017-06-21T14:47:22.057Z,7.10
2017-06-21T14:49:49.488Z,7.63
2017-06-21T14:52:16.925Z,6.93
2017-06-21T14:54:44.356Z,7.17
2017-06-21T14:57:11.786Z,5.60
2017-06-21T14:59:39.241Z,6.53
2017-06-21T15:02:07.443Z,7.40
2017-06-21T15:04:34.974Z,6.60
2017-06-21T15:07:03.177Z,7.00
2017-06-21T15:09:30.616Z,6.63
2017-06-21T15:11:58.821Z,6.80
2017-06-21T15:14:26.265Z,6.77
2017-06-21T15:16:53.696Z,6.50
2017-06-21T15:19:21.963Z,6.90
2017-06-21T15:21:49.396Z,5.90
2017-06-21T15:24:16.825Z,6.50
2017-06-21T15:26:44.261Z,6.77
2017-06-21T15:29:11.690Z,7.53
2017-06-21T15:31:39.897Z,6.80
2017-06-21T15:34:07.321Z,6.67
2017-06-21T15:36:35.524Z,6.70
2017-06-21T15:39:02.960Z,7.30
2017-06-21T15:41:31.232Z,5.83
2017-06-21T15:43:59.453Z,6.83
2017-06-21T15:46:26.908Z,6.30
2017-06-21T15:48:54.349Z,6.33
2017-06-21T15:51:21.777Z,7.37
2017-06-21T15:53:49.980Z,6.43
2017-06-21T15:56:17.409Z,6.37
2017-06-21T15:58:45.617Z,6.23
2017-06-21T16:01:13.037Z,6.00
2017-06-21T16:03:41.242Z,6.40
2017-06-21T16:06:08.670Z,5.93
2017-06-21T16:08:36.878Z,6.80
2017-06-21T16:11:04.304Z,6.17
2017-06-21T16:13:32.508Z,6.40
2017-06-21T16:15:59.939Z,6.63
2017-06-21T16:18:28.136Z,5.83
2017-06-21T16:20:55.565Z,6.20
2017-06-21T16:23:23.765Z,6.07
2017-06-21T16:25:51.188Z,5.73
2017-06-21T16:28:19.411Z,5.97
2017-06-21T16:30:46.840Z,6.00
2017-06-21T16:33:14.264Z,6.67
2017-06-21T16:35:41.700Z,5.83
2017-06-21T16:38:09.549Z,6.63
2017-06-21T16:40:36.966Z,5.77
2017-06-21T16:43:05.156Z,6.30
2017-06-21T16:45:32.589Z,6.10
2017-06-21T16:48:00.789Z,5.37
2017-06-21T16:50:28.220Z,6.30
2017-06-21T16:52:56.420Z,6.87
2017-06-21T16:55:23.852Z,6.63
2017-06-21T16:57:52.053Z,5.53
2017-06-21T17:00:19.545Z,6.00
2017-06-21T17:02:46.969Z,6.47
2017-06-21T17:05:14.392Z,6.03
2017-06-21T17:07:42.597Z,6.47
2017-06-21T17:10:10.025Z,5.67
2017-06-21T17:12:38.229Z,5.90
2017-06-21T17:15:05.657Z,6.23
2017-06-21T17:17:33.861Z,6.23
2017-06-21T17:20:01.294Z,6.23
2017-06-21T17:22:29.494Z,5.63
2017-06-21T17:24:56.944Z,6.43
2017-06-21T17:27:24.377Z,6.37
2017-06-21T17:29:52.572Z,5.37
2017-06-21T17:32:20.021Z,5.97
2017-06-21T17:34:47.453Z,5.70
2017-06-21T17:37:14.912Z,7.27
2017-06-21T17:39:42.369Z,6.60
2017-06-21T17:42:09.915Z,5.30
2017-06-21T17:44:37.341Z,6.73
2017-06-21T17:47:04.777Z,7.10
2017-06-21T17:49:32.215Z,6.50
2017-06-21T17:52:00.408Z,6.40
2017-06-21T17:54:29.906Z,6.10
2017-06-21T17:56:57.337Z,5.97
2017-06-21T17:59:24.792Z,5.50
2017-06-21T18:01:52.992Z,5.37
2017-06-21T18:04:20.417Z,5.67
2017-06-21T18:06:47.853Z,5.70
2017-06-21T18:09:15.289Z,5.60
2017-06-21T18:11:42.732Z,5.13
2017-06-21T18:14:10.156Z,4.80
2017-06-21T18:16:38.360Z,4.80
2017-06-21T18:19:05.790Z,5.70
2017-06-21T18:21:33.989Z,5.37
2017-06-21T18:24:01.423Z,5.03
2017-06-21T18:26:29.634Z,5.40
2017-06-21T18:28:57.070Z,5.40
2017-06-21T18:31:24.505Z,6.03
2017-06-21T18:33:52.705Z,5.20
2017-06-21T18:36:20.999Z,5.60
2017-06-21T18:38:48.409Z,5.03
2017-06-21T18:41:16.600Z,5.07
2017-06-21T18:43:44.040Z,5.90
2017-06-21T18:46:12.245Z,6.07
2017-06-21T18:48:39.690Z,5.77
2017-06-21T18:51:07.116Z,5.20
2017-06-21T18:53:34.657Z,4.97
2017-06-21T18:56:02.190Z,5.53
2017-06-21T18:58:29.651Z,5.43
2017-06-21T19:00:57.098Z,4.80
2017-06-21T19:03:24.605Z,5.20
2017-06-21T19:05:52.013Z,4.97
2017-06-21T19:08:19.449Z,4.73
2017-06-21T19:10:46.877Z,5.37
2017-06-21T19:13:14.304Z,6.10
2017-06-21T19:15:41.745Z,6.43
2017-06-21T19:18:09.169Z,4.97
2017-06-21T19:20:36.615Z,5.40
2017-06-21T19:23:04.049Z,5.50
2017-06-21T19:25:31.486Z,6.23
2017-06-21T19:27:58.925Z,5.57
2017-06-21T19:30:26.357Z,5.37
2017-06-21T19:32:53.784Z,5.40
2017-06-21T19:35:21.224Z,5.77
2017-06-21T19:37:48.656Z,5.93
2017-06-21T19:40:17.088Z,6.27
2017-06-21T19:42:44.520Z,5.70
2017-06-21T19:45:11.956Z,5.70
2017-06-21T19:47:39.388Z,6.10
2017-06-21T19:50:06.822Z,5.40
2017-06-21T19:52:35.021Z,5.00
2017-06-21T19:55:02.444Z,5.83
2017-06-21T19:57:29.887Z,6.20
2017-06-21T19:59:57.318Z,5.80
2017-06-21T20:02:25.844Z,6.13
2017-06-21T20:04:53.256Z,4.83
2017-06-21T20:07:20.695Z,5.50
2017-06-21T20:09:48.132Z,5.60
2017-06-21T20:12:15.573Z,5.30
2017-06-21T20:14:43.783Z,6.03
2017-06-21T20:17:11.213Z,5.30
2017-06-21T20:19:38.645Z,5.57
2017-06-21T20:22:06.085Z,6.40
2017-06-21T20:24:33.527Z,6.43
2017-06-21T20:27:00.948Z,5.80
2017-06-21T20:29:28.385Z,5.73
2017-06-21T20:31:55.814Z,5.43
2017-06-21T20:34:23.253Z,5.60
2017-06-21T20:36:50.691Z,5.83
2017-06-21T20:39:18.224Z,5.90
2017-06-21T20:41:45.632Z,6.00
2017-06-21T20:44:13.063Z,5.97
2017-06-21T20:46:40.497Z,6.70
2017-06-21T20:49:08.041Z,5.50
2017-06-21T20:51:35.466Z,5.43
2017-06-21T20:54:02.913Z,6.10
2017-06-21T20:56:30.350Z,5.37
2017-06-21T20:58:57.776Z,6.87
2017-06-21T21:01:25.213Z,6.70
2017-06-21T21:03:52.644Z,6.57
2017-06-21T21:06:20.129Z,7.00
2017-06-21T21:08:48.365Z,7.30
2017-06-21T21:11:15.865Z,6.67
2017-06-21T21:13:44.056Z,6.13
2017-06-21T21:16:11.484Z,6.60
2017-06-21T21:18:38.921Z,6.20
2017-06-21T21:21:06.409Z,6.67
2017-06-21T21:23:34.609Z,7.60
2017-06-21T21:26:02.041Z,7.87
2017-06-21T21:28:29.478Z,5.97
2017-06-21T21:30:56.914Z,7.53
2017-06-21T21:33:24.351Z,7.10
2017-06-21T21:35:51.777Z,8.13
2017-06-21T21:38:20.001Z,7.80
2017-06-21T21:40:47.464Z,6.77
2017-06-21T21:43:14.896Z,6.77
2017-06-21T21:45:42.400Z,6.13
2017-06-21T21:48:09.841Z,7.27
2017-06-21T21:50:37.267Z,7.47
2017-06-21T21:53:04.724Z,6.83
2017-06-21T21:55:32.153Z,8.57
2017-06-21T21:57:59.589Z,6.80
2017-06-21T22:00:27.829Z,8.90
2017-06-21T22:02:55.263Z,7.53
2017-06-21T22:05:22.695Z,8.20
2017-06-21T22:07:50.121Z,8.00
2017-06-21T22:10:17.564Z,7.27
2017-06-21T22:12:44.995Z,7.60
2017-06-21T22:15:12.436Z,8.80
2017-06-21T22:17:39.868Z,8.87
2017-06-21T22:20:08.073Z,8.87
2017-06-21T22:22:35.510Z,9.90
2017-06-21T22:25:03.709Z,8.43
2017-06-21T22:27:31.137Z,8.90
2017-06-21T22:29:58.576Z,9.13
2017-06-21T22:32:26.772Z,9.10
2017-06-21T22:34:54.200Z,9.43
2017-06-21T22:37:21.641Z,9.70
2017-06-21T22:39:49.081Z,9.20
2017-06-21T22:42:16.522Z,9.23
2017-06-21T22:44:43.945Z,8.13
2017-06-21T22:47:11.389Z,8.27
2017-06-21T22:49:39.589Z,8.50
2017-06-21T22:52:07.029Z,10.10
2017-06-21T22:54:35.229Z,9.20
2017-06-21T22:57:02.664Z,9.20
2017-06-21T22:59:30.101Z,9.73
2017-06-21T23:01:57.533Z,9.17
2017-06-21T23:04:24.970Z,9.47
2017-06-21T23:06:52.396Z,8.87
2017-06-21T23:09:19.845Z,9.37
2017-06-21T23:11:48.046Z,9.23
2017-06-21T23:14:15.485Z,9.63
2017-06-21T23:16:42.917Z,9.07
2017-06-21T23:19:10.356Z,10.30
2017-06-21T23:21:37.788Z,8.47
2017-06-21T23:24:05.237Z,8.50
2017-06-21T23:26:32.665Z,8.60
2017-06-21T23:29:00.872Z,8.87
2017-06-21T23:31:28.309Z,7.97
2017-06-21T23:33:55.737Z,8.33
2017-06-21T23:36:23.941Z,8.70
2017-06-21T23:38:51.378Z,8.37
2017-06-21T23:41:19.577Z,10.17
2017-06-21T23:43:47.017Z,10.90
2017-06-21T23:46:14.448Z,9.10
2017-06-21T23:48:41.876Z,9.73
2017-06-21T23:51:09.317Z,9.53
2017-06-21T23:53:36.748Z,9.37
2017-06-21T23:56:04.181Z,9.90
2017-06-21T23:58:31.612Z,8.20
